sensor_id;sensor_type;location;lat;lon;timestamp;P1;durP1;ratioP1;P2;durP2;ratioP2
1601;SDS011;794;48.592;9.634;2022-11-18T00:01:47;4.73;;;2.20;;
1601;SDS011;794;48.592;9.634;2022-11-18T00:04:15;2.23;;;1.80;;
1601;SDS011;794;48.592;9.634;2022-11-18T00:06:42;1.10;;;1.00;;
1601;SDS011;794;48.592;9.634;2022-11-18T00:09:09;6.00;;;2.60;;
1601;SDS011;794;48.592;9.634;2022-11-18T00:11:35;7.13;;;3.40;;
1601;SDS011;794;48.592;9.634;2022-11-18T00:14:22;4.00;;;2.60;;
1601;SDS011;794;48.592;9.634;2022-11-18T00:16:52;1.23;;;0.83;;
1601;SDS011;794;48.592;9.634;2022-11-18T00:19:20;0.70;;;0.60;;
1601;SDS011;794;48.592;9.634;2022-11-18T00:21:49;0.70;;;0.60;;
1601;SDS011;794;48.592;9.634;2022-11-18T00:24:16;0.83;;;0.77;;
1601;SDS011;794;48.592;9.634;2022-11-18T00:26:43;0.60;;;0.60;;
1601;SDS011;794;48.592;9.634;2022-11-18T00:29:10;0.70;;;0.70;;
1601;SDS011;794;48.592;9.634;2022-11-18T00:31:39;0.90;;;0.80;;
1601;SDS011;794;48.592;9.634;2022-11-18T00:34:06;0.80;;;0.80;;
1601;SDS011;794;48.592;9.634;2022-11-18T00:36:36;2.20;;;0.77;;
1601;SDS011;794;48.592;9.634;2022-11-18T00:39:03;2.43;;;2.13;;
1601;SDS011;794;48.592;9.634;2022-11-18T00:41:30;5.33;;;1.77;;
1601;SDS011;794;48.592;9.634;2022-11-18T00:44:11;2.10;;;1.40;;
1601;SDS011;794;48.592;9.634;2022-11-18T00:46:39;2.10;;;1.70;;
1601;SDS011;794;48.592;9.634;2022-11-18T00:49:06;1.40;;;0.90;;
1601;SDS011;794;48.592;9.634;2022-11-18T00:51:33;1.07;;;1.03;;
1601;SDS011;794;48.592;9.634;2022-11-18T00:54:01;2.00;;;0.80;;
1601;SDS011;794;48.592;9.634;2022-11-18T00:56:28;2.00;;;0.80;;
1601;SDS011;794;48.592;9.634;2022-11-18T00:58:55;6.93;;;3.30;;
1601;SDS011;794;48.592;9.634;2022-11-18T01:01:22;5.13;;;3.47;;
1601;SDS011;794;48.592;9.634;2022-11-18T01:03:51;5.93;;;4.00;;
1601;SDS011;794;48.592;9.634;2022-11-18T01:06:18;3.40;;;2.37;;
1601;SDS011;794;48.592;9.634;2022-11-18T01:08:45;3.40;;;2.37;;
1601;SDS011;794;48.592;9.634;2022-11-18T01:11:12;3.27;;;2.33;;
1601;SDS011;794;48.592;9.634;2022-11-18T01:13:59;2.53;;;1.43;;
1601;SDS011;794;48.592;9.634;2022-11-18T01:16:26;1.60;;;1.17;;
1601;SDS011;794;48.592;9.634;2022-11-18T01:18:56;1.70;;;0.80;;
1601;SDS011;794;48.592;9.634;2022-11-18T01:21:23;1.40;;;1.10;;
1601;SDS011;794;48.592;9.634;2022-11-18T01:23:50;0.93;;;0.90;;
1601;SDS011;794;48.592;9.634;2022-11-18T01:26:17;1.07;;;0.73;;
1601;SDS011;794;48.592;9.634;2022-11-18T01:28:44;0.70;;;0.70;;
1601;SDS011;794;48.592;9.634;2022-11-18T01:31:12;1.07;;;0.70;;
1601;SDS011;794;48.592;9.634;2022-11-18T01:33:40;2.00;;;0.80;;
1601;SDS011;794;48.592;9.634;2022-11-18T01:36:16;0.60;;;0.60;;
1601;SDS011;794;48.592;9.634;2022-11-18T01:38:44;0.60;;;0.60;;
1601;SDS011;794;48.592;9.634;2022-11-18T01:41:11;1.70;;;0.57;;
1601;SDS011;794;48.592;9.634;2022-11-18T01:43:49;0.80;;;0.80;;
1601;SDS011;794;48.592;9.634;2022-11-18T01:46:19;3.03;;;0.87;;
1601;SDS011;794;48.592;9.634;2022-11-18T01:48:47;1.77;;;0.80;;
1601;SDS011;794;48.592;9.634;2022-11-18T01:51:20;0.60;;;0.60;;
1601;SDS011;794;48.592;9.634;2022-11-18T01:53:50;0.80;;;0.70;;
1601;SDS011;794;48.592;9.634;2022-11-18T01:56:24;1.00;;;0.70;;
1601;SDS011;794;48.592;9.634;2022-11-18T01:58:56;0.80;;;0.63;;
1601;SDS011;794;48.592;9.634;2022-11-18T02:01:26;3.37;;;0.90;;
1601;SDS011;794;48.592;9.634;2022-11-18T02:03:53;0.50;;;0.50;;
1601;SDS011;794;48.592;9.634;2022-11-18T02:06:22;1.07;;;0.60;;
1601;SDS011;794;48.592;9.634;2022-11-18T02:08:50;1.80;;;0.90;;
1601;SDS011;794;48.592;9.634;2022-11-18T02:11:17;0.77;;;0.60;;
1601;SDS011;794;48.592;9.634;2022-11-18T02:14:02;1.57;;;0.63;;
1601;SDS011;794;48.592;9.634;2022-11-18T02:16:36;1.03;;;0.97;;
1601;SDS011;794;48.592;9.634;2022-11-18T02:19:19;1.37;;;0.63;;
1601;SDS011;794;48.592;9.634;2022-11-18T02:22:10;0.93;;;0.80;;
1601;SDS011;794;48.592;9.634;2022-11-18T02:24:51;0.93;;;0.70;;
1601;SDS011;794;48.592;9.634;2022-11-18T02:27:42;2.30;;;0.90;;
1601;SDS011;794;48.592;9.634;2022-11-18T02:30:25;0.97;;;0.90;;
1601;SDS011;794;48.592;9.634;2022-11-18T02:32:54;1.17;;;0.90;;
1601;SDS011;794;48.592;9.634;2022-11-18T02:35:25;3.00;;;1.00;;
1601;SDS011;794;48.592;9.634;2022-11-18T02:37:56;1.57;;;0.70;;
1601;SDS011;794;48.592;9.634;2022-11-18T02:40:26;1.00;;;1.00;;
1601;SDS011;794;48.592;9.634;2022-11-18T02:42:57;1.37;;;0.80;;
1601;SDS011;794;48.592;9.634;2022-11-18T02:45:30;0.80;;;0.80;;
1601;SDS011;794;48.592;9.634;2022-11-18T02:47:58;0.73;;;0.70;;
1601;SDS011;794;48.592;9.634;2022-11-18T02:50:29;1.77;;;1.00;;
1601;SDS011;794;48.592;9.634;2022-11-18T02:52:58;0.90;;;0.77;;
1601;SDS011;794;48.592;9.634;2022-11-18T02:55:29;1.70;;;0.70;;
1601;SDS011;794;48.592;9.634;2022-11-18T02:57:58;1.57;;;0.93;;
1601;SDS011;794;48.592;9.634;2022-11-18T03:00:27;0.70;;;0.60;;
1601;SDS011;794;48.592;9.634;2022-11-18T03:02:56;0.80;;;0.80;;
1601;SDS011;794;48.592;9.634;2022-11-18T03:05:25;1.20;;;0.70;;
1601;SDS011;794;48.592;9.634;2022-11-18T03:07:59;1.10;;;1.00;;
1601;SDS011;794;48.592;9.634;2022-11-18T03:10:35;1.77;;;0.80;;
1601;SDS011;794;48.592;9.634;2022-11-18T03:13:10;1.50;;;0.73;;
1601;SDS011;794;48.592;9.634;2022-11-18T03:15:47;1.07;;;0.70;;
1601;SDS011;794;48.592;9.634;2022-11-18T03:18:22;1.40;;;0.87;;
1601;SDS011;794;48.592;9.634;2022-11-18T03:20:54;0.60;;;0.60;;
1601;SDS011;794;48.592;9.634;2022-11-18T03:23:29;1.00;;;0.80;;
1601;SDS011;794;48.592;9.634;2022-11-18T03:26:00;1.67;;;1.03;;
1601;SDS011;794;48.592;9.634;2022-11-18T03:28:32;1.03;;;0.93;;
1601;SDS011;794;48.592;9.634;2022-11-18T03:31:06;1.03;;;0.83;;
1601;SDS011;794;48.592;9.634;2022-11-18T03:33:38;2.67;;;0.90;;
1601;SDS011;794;48.592;9.634;2022-11-18T03:36:08;1.30;;;0.70;;
1601;SDS011;794;48.592;9.634;2022-11-18T03:38:38;1.73;;;0.70;;
1601;SDS011;794;48.592;9.634;2022-11-18T03:41:09;0.90;;;0.57;;
1601;SDS011;794;48.592;9.634;2022-11-18T03:43:39;0.50;;;0.50;;
1601;SDS011;794;48.592;9.634;2022-11-18T03:46:14;0.50;;;0.40;;
1601;SDS011;794;48.592;9.634;2022-11-18T03:48:45;0.63;;;0.40;;
1601;SDS011;794;48.592;9.634;2022-11-18T03:51:16;0.70;;;0.70;;
1601;SDS011;794;48.592;9.634;2022-11-18T03:53:46;0.97;;;0.70;;
1601;SDS011;794;48.592;9.634;2022-11-18T03:56:20;1.43;;;0.50;;
1601;SDS011;794;48.592;9.634;2022-11-18T03:58:51;0.60;;;0.60;;
1601;SDS011;794;48.592;9.634;2022-11-18T04:01:24;0.60;;;0.50;;
1601;SDS011;794;48.592;9.634;2022-11-18T04:03:56;0.63;;;0.60;;
1601;SDS011;794;48.592;9.634;2022-11-18T04:06:24;0.60;;;0.60;;
1601;SDS011;794;48.592;9.634;2022-11-18T04:08:58;0.83;;;0.83;;
1601;SDS011;794;48.592;9.634;2022-11-18T04:11:29;0.60;;;0.50;;
1601;SDS011;794;48.592;9.634;2022-11-18T04:14:18;1.00;;;0.80;;
1601;SDS011;794;48.592;9.634;2022-11-18T04:16:49;0.60;;;0.60;;
1601;SDS011;794;48.592;9.634;2022-11-18T04:19:17;1.33;;;0.70;;
1601;SDS011;794;48.592;9.634;2022-11-18T04:21:45;4.60;;;0.60;;
1601;SDS011;794;48.592;9.634;2022-11-18T04:24:12;0.50;;;0.50;;
1601;SDS011;794;48.592;9.634;2022-11-18T04:26:39;0.70;;;0.70;;
1601;SDS011;794;48.592;9.634;2022-11-18T04:29:06;0.60;;;0.60;;
1601;SDS011;794;48.592;9.634;2022-11-18T04:31:34;0.50;;;0.50;;
1601;SDS011;794;48.592;9.634;2022-11-18T04:34:02;0.50;;;0.50;;
1601;SDS011;794;48.592;9.634;2022-11-18T04:36:29;0.60;;;0.50;;
1601;SDS011;794;48.592;9.634;2022-11-18T04:38:56;0.60;;;0.60;;
1601;SDS011;794;48.592;9.634;2022-11-18T04:41:23;0.60;;;0.60;;
1601;SDS011;794;48.592;9.634;2022-11-18T04:44:10;0.70;;;0.60;;
1601;SDS011;794;48.592;9.634;2022-11-18T04:46:38;0.60;;;0.60;;
1601;SDS011;794;48.592;9.634;2022-11-18T04:49:07;0.50;;;0.40;;
1601;SDS011;794;48.592;9.634;2022-11-18T04:51:35;0.50;;;0.50;;
1601;SDS011;794;48.592;9.634;2022-11-18T04:54:02;0.50;;;0.43;;
1601;SDS011;794;48.592;9.634;2022-11-18T04:56:30;0.67;;;0.60;;
1601;SDS011;794;48.592;9.634;2022-11-18T04:58:57;0.60;;;0.50;;
1601;SDS011;794;48.592;9.634;2022-11-18T05:01:25;2.70;;;0.70;;
1601;SDS011;794;48.592;9.634;2022-11-18T05:03:52;0.63;;;0.57;;
1601;SDS011;794;48.592;9.634;2022-11-18T05:06:21;0.53;;;0.50;;
1601;SDS011;794;48.592;9.634;2022-11-18T05:08:48;0.90;;;0.53;;
1601;SDS011;794;48.592;9.634;2022-11-18T05:11:15;0.50;;;0.50;;
1601;SDS011;794;48.592;9.634;2022-11-18T05:13:59;0.70;;;0.70;;
1601;SDS011;794;48.592;9.634;2022-11-18T05:16:26;0.63;;;0.63;;
1601;SDS011;794;48.592;9.634;2022-11-18T05:18:53;0.80;;;0.70;;
1601;SDS011;794;48.592;9.634;2022-11-18T05:21:22;1.33;;;0.63;;
1601;SDS011;794;48.592;9.634;2022-11-18T05:23:50;0.50;;;0.50;;
1601;SDS011;794;48.592;9.634;2022-11-18T05:26:17;0.77;;;0.50;;
1601;SDS011;794;48.592;9.634;2022-11-18T05:28:44;0.77;;;0.60;;
1601;SDS011;794;48.592;9.634;2022-11-18T05:31:12;1.40;;;1.30;;
1601;SDS011;794;48.592;9.634;2022-11-18T05:33:40;1.73;;;1.63;;
1601;SDS011;794;48.592;9.634;2022-11-18T05:36:08;2.80;;;2.60;;
1601;SDS011;794;48.592;9.634;2022-11-18T05:38:38;5.10;;;4.60;;
1601;SDS011;794;48.592;9.634;2022-11-18T05:41:05;2.33;;;2.20;;
1601;SDS011;794;48.592;9.634;2022-11-18T05:43:32;1.57;;;0.83;;
1601;SDS011;794;48.592;9.634;2022-11-18T05:45:59;0.87;;;0.87;;
1601;SDS011;794;48.592;9.634;2022-11-18T05:48:26;0.60;;;0.60;;
1601;SDS011;794;48.592;9.634;2022-11-18T05:50:53;0.60;;;0.43;;
1601;SDS011;794;48.592;9.634;2022-11-18T05:53:21;0.60;;;0.50;;
1601;SDS011;794;48.592;9.634;2022-11-18T05:55:52;0.87;;;0.60;;
1601;SDS011;794;48.592;9.634;2022-11-18T05:58:23;0.63;;;0.63;;
1601;SDS011;794;48.592;9.634;2022-11-18T06:00:51;0.60;;;0.50;;
1601;SDS011;794;48.592;9.634;2022-11-18T06:03:21;4.63;;;0.70;;
1601;SDS011;794;48.592;9.634;2022-11-18T06:05:52;0.47;;;0.43;;
1601;SDS011;794;48.592;9.634;2022-11-18T06:08:20;0.63;;;0.63;;
1601;SDS011;794;48.592;9.634;2022-11-18T06:10:50;0.50;;;0.40;;
1601;SDS011;794;48.592;9.634;2022-11-18T06:13:18;0.50;;;0.50;;
1601;SDS011;794;48.592;9.634;2022-11-18T06:15:48;0.60;;;0.50;;
1601;SDS011;794;48.592;9.634;2022-11-18T06:18:16;0.60;;;0.50;;
1601;SDS011;794;48.592;9.634;2022-11-18T06:20:47;0.50;;;0.50;;
1601;SDS011;794;48.592;9.634;2022-11-18T06:23:14;0.60;;;0.50;;
1601;SDS011;794;48.592;9.634;2022-11-18T06:25:42;0.73;;;0.60;;
1601;SDS011;794;48.592;9.634;2022-11-18T06:28:11;0.80;;;0.70;;
1601;SDS011;794;48.592;9.634;2022-11-18T06:30:40;0.50;;;0.50;;
1601;SDS011;794;48.592;9.634;2022-11-18T06:33:07;0.50;;;0.50;;
1601;SDS011;794;48.592;9.634;2022-11-18T06:35:34;2.63;;;1.27;;
1601;SDS011;794;48.592;9.634;2022-11-18T06:38:01;0.70;;;0.70;;
1601;SDS011;794;48.592;9.634;2022-11-18T06:40:28;1.00;;;0.90;;
1601;SDS011;794;48.592;9.634;2022-11-18T06:42:55;2.63;;;2.43;;
1601;SDS011;794;48.592;9.634;2022-11-18T06:45:41;3.23;;;3.03;;
1601;SDS011;794;48.592;9.634;2022-11-18T06:48:28;2.07;;;1.97;;
1601;SDS011;794;48.592;9.634;2022-11-18T06:50:56;2.47;;;2.27;;
1601;SDS011;794;48.592;9.634;2022-11-18T06:53:23;1.03;;;1.03;;
1601;SDS011;794;48.592;9.634;2022-11-18T06:55:50;1.10;;;0.70;;
1601;SDS011;794;48.592;9.634;2022-11-18T06:58:17;0.50;;;0.50;;
1601;SDS011;794;48.592;9.634;2022-11-18T07:00:45;0.47;;;0.40;;
1601;SDS011;794;48.592;9.634;2022-11-18T07:03:12;0.50;;;0.50;;
1601;SDS011;794;48.592;9.634;2022-11-18T07:05:39;1.70;;;0.93;;
1601;SDS011;794;48.592;9.634;2022-11-18T07:08:07;0.70;;;0.70;;
1601;SDS011;794;48.592;9.634;2022-11-18T07:10:34;0.60;;;0.60;;
1601;SDS011;794;48.592;9.634;2022-11-18T07:13:01;0.70;;;0.70;;
1601;SDS011;794;48.592;9.634;2022-11-18T07:15:28;0.87;;;0.70;;
1601;SDS011;794;48.592;9.634;2022-11-18T07:17:56;0.90;;;0.80;;
1601;SDS011;794;48.592;9.634;2022-11-18T07:20:23;1.20;;;0.57;;
1601;SDS011;794;48.592;9.634;2022-11-18T07:22:51;0.80;;;0.50;;
1601;SDS011;794;48.592;9.634;2022-11-18T07:25:18;0.60;;;0.50;;
1601;SDS011;794;48.592;9.634;2022-11-18T07:27:45;0.50;;;0.50;;
1601;SDS011;794;48.592;9.634;2022-11-18T07:30:13;0.70;;;0.50;;
1601;SDS011;794;48.592;9.634;2022-11-18T07:32:40;1.20;;;1.10;;
1601;SDS011;794;48.592;9.634;2022-11-18T07:35:09;9.30;;;8.40;;
1601;SDS011;794;48.592;9.634;2022-11-18T07:37:36;3.00;;;2.70;;
1601;SDS011;794;48.592;9.634;2022-11-18T07:40:03;2.60;;;2.40;;
1601;SDS011;794;48.592;9.634;2022-11-18T07:42:31;13.63;;;12.33;;
1601;SDS011;794;48.592;9.634;2022-11-18T07:45:07;14.00;;;10.17;;
1601;SDS011;794;48.592;9.634;2022-11-18T07:47:35;3.20;;;2.80;;
1601;SDS011;794;48.592;9.634;2022-11-18T07:50:03;2.77;;;1.83;;
1601;SDS011;794;48.592;9.634;2022-11-18T07:52:31;1.67;;;1.30;;
1601;SDS011;794;48.592;9.634;2022-11-18T07:54:58;1.20;;;1.10;;
1601;SDS011;794;48.592;9.634;2022-11-18T07:57:26;4.30;;;1.00;;
1601;SDS011;794;48.592;9.634;2022-11-18T07:59:53;0.60;;;0.60;;
1601;SDS011;794;48.592;9.634;2022-11-18T08:02:20;0.70;;;0.70;;
1601;SDS011;794;48.592;9.634;2022-11-18T08:04:47;0.60;;;0.60;;
1601;SDS011;794;48.592;9.634;2022-11-18T08:07:14;0.50;;;0.50;;
1601;SDS011;794;48.592;9.634;2022-11-18T08:09:43;0.60;;;0.50;;
1601;SDS011;794;48.592;9.634;2022-11-18T08:12:10;0.60;;;0.60;;
1601;SDS011;794;48.592;9.634;2022-11-18T08:14:37;0.70;;;0.70;;
1601;SDS011;794;48.592;9.634;2022-11-18T08:17:04;0.63;;;0.63;;
1601;SDS011;794;48.592;9.634;2022-11-18T08:19:32;0.80;;;0.80;;
1601;SDS011;794;48.592;9.634;2022-11-18T08:22:00;0.60;;;0.60;;
1601;SDS011;794;48.592;9.634;2022-11-18T08:24:27;0.60;;;0.60;;
1601;SDS011;794;48.592;9.634;2022-11-18T08:26:56;1.00;;;0.87;;
1601;SDS011;794;48.592;9.634;2022-11-18T08:29:23;0.57;;;0.57;;
1601;SDS011;794;48.592;9.634;2022-11-18T08:31:50;1.37;;;1.27;;
1601;SDS011;794;48.592;9.634;2022-11-18T08:34:18;1.33;;;0.90;;
1601;SDS011;794;48.592;9.634;2022-11-18T08:36:45;0.70;;;0.70;;
1601;SDS011;794;48.592;9.634;2022-11-18T08:39:13;0.70;;;0.70;;
1601;SDS011;794;48.592;9.634;2022-11-18T08:41:40;0.60;;;0.60;;
1601;SDS011;794;48.592;9.634;2022-11-18T08:44:10;3.10;;;2.60;;
1601;SDS011;794;48.592;9.634;2022-11-18T08:46:38;1.40;;;1.30;;
1601;SDS011;794;48.592;9.634;2022-11-18T08:49:05;0.60;;;0.50;;
1601;SDS011;794;48.592;9.634;2022-11-18T08:51:32;0.60;;;0.50;;
1601;SDS011;794;48.592;9.634;2022-11-18T08:54:00;0.60;;;0.60;;
1601;SDS011;794;48.592;9.634;2022-11-18T08:56:27;0.70;;;0.70;;
1601;SDS011;794;48.592;9.634;2022-11-18T08:58:54;0.60;;;0.50;;
1601;SDS011;794;48.592;9.634;2022-11-18T09:01:23;0.77;;;0.60;;
1601;SDS011;794;48.592;9.634;2022-11-18T09:03:50;1.27;;;0.80;;
1601;SDS011;794;48.592;9.634;2022-11-18T09:06:18;1.07;;;1.00;;
1601;SDS011;794;48.592;9.634;2022-11-18T09:08:46;0.60;;;0.60;;
1601;SDS011;794;48.592;9.634;2022-11-18T09:11:14;1.57;;;0.60;;
1601;SDS011;794;48.592;9.634;2022-11-18T09:13:42;0.90;;;0.70;;
1601;SDS011;794;48.592;9.634;2022-11-18T09:16:09;0.50;;;0.50;;
1601;SDS011;794;48.592;9.634;2022-11-18T09:18:38;0.50;;;0.50;;
1601;SDS011;794;48.592;9.634;2022-11-18T09:21:07;0.50;;;0.50;;
1601;SDS011;794;48.592;9.634;2022-11-18T09:23:35;0.50;;;0.40;;
1601;SDS011;794;48.592;9.634;2022-11-18T09:26:03;1.03;;;0.83;;
1601;SDS011;794;48.592;9.634;2022-11-18T09:28:31;0.50;;;0.50;;
1601;SDS011;794;48.592;9.634;2022-11-18T09:30:59;1.23;;;1.13;;
1601;SDS011;794;48.592;9.634;2022-11-18T09:33:26;1.00;;;1.00;;
1601;SDS011;794;48.592;9.634;2022-11-18T09:35:54;0.73;;;0.73;;
1601;SDS011;794;48.592;9.634;2022-11-18T09:38:22;0.50;;;0.50;;
1601;SDS011;794;48.592;9.634;2022-11-18T09:40:51;0.60;;;0.53;;
1601;SDS011;794;48.592;9.634;2022-11-18T09:43:23;0.50;;;0.50;;
1601;SDS011;794;48.592;9.634;2022-11-18T09:45:55;0.50;;;0.50;;
1601;SDS011;794;48.592;9.634;2022-11-18T09:48:24;0.60;;;0.60;;
1601;SDS011;794;48.592;9.634;2022-11-18T09:51:13;1.23;;;0.40;;
1601;SDS011;794;48.592;9.634;2022-11-18T09:53:40;5.77;;;3.47;;
1601;SDS011;794;48.592;9.634;2022-11-18T09:56:10;10.20;;;6.43;;
1601;SDS011;794;48.592;9.634;2022-11-18T09:58:39;9.40;;;6.60;;
1601;SDS011;794;48.592;9.634;2022-11-18T10:01:08;1.43;;;1.33;;
1601;SDS011;794;48.592;9.634;2022-11-18T10:03:37;1.40;;;1.30;;
1601;SDS011;794;48.592;9.634;2022-11-18T10:06:10;2.70;;;2.50;;
1601;SDS011;794;48.592;9.634;2022-11-18T10:08:41;0.70;;;0.60;;
1601;SDS011;794;48.592;9.634;2022-11-18T10:11:10;0.50;;;0.50;;
1601;SDS011;794;48.592;9.634;2022-11-18T10:13:44;0.70;;;0.70;;
1601;SDS011;794;48.592;9.634;2022-11-18T10:16:18;0.70;;;0.63;;
1601;SDS011;794;48.592;9.634;2022-11-18T10:18:50;0.60;;;0.60;;
1601;SDS011;794;48.592;9.634;2022-11-18T10:21:20;0.80;;;0.80;;
1601;SDS011;794;48.592;9.634;2022-11-18T10:23:51;1.07;;;1.07;;
1601;SDS011;794;48.592;9.634;2022-11-18T10:26:32;0.73;;;0.60;;
1601;SDS011;794;48.592;9.634;2022-11-18T10:29:00;0.50;;;0.50;;
1601;SDS011;794;48.592;9.634;2022-11-18T10:31:28;0.70;;;0.70;;
1601;SDS011;794;48.592;9.634;2022-11-18T10:33:58;1.30;;;0.73;;
1601;SDS011;794;48.592;9.634;2022-11-18T10:36:26;2.10;;;0.80;;
1601;SDS011;794;48.592;9.634;2022-11-18T10:39:05;1.13;;;1.03;;
1601;SDS011;794;48.592;9.634;2022-11-18T10:41:36;0.60;;;0.60;;
1601;SDS011;794;48.592;9.634;2022-11-18T10:44:04;0.50;;;0.50;;
1601;SDS011;794;48.592;9.634;2022-11-18T10:46:32;0.80;;;0.80;;
1601;SDS011;794;48.592;9.634;2022-11-18T10:49:09;1.50;;;0.90;;
1601;SDS011;794;48.592;9.634;2022-11-18T10:51:38;0.70;;;0.70;;
1601;SDS011;794;48.592;9.634;2022-11-18T10:54:08;1.30;;;1.20;;
1601;SDS011;794;48.592;9.634;2022-11-18T10:56:43;1.97;;;1.03;;
1601;SDS011;794;48.592;9.634;2022-11-18T10:59:11;1.80;;;1.40;;
1601;SDS011;794;48.592;9.634;2022-11-18T11:01:43;0.60;;;0.60;;
1601;SDS011;794;48.592;9.634;2022-11-18T11:04:22;1.30;;;0.90;;
1601;SDS011;794;48.592;9.634;2022-11-18T11:06:51;0.80;;;0.77;;
1601;SDS011;794;48.592;9.634;2022-11-18T11:09:23;0.90;;;0.90;;
1601;SDS011;794;48.592;9.634;2022-11-18T11:11:55;1.57;;;0.97;;
1601;SDS011;794;48.592;9.634;2022-11-18T11:14:24;1.30;;;1.30;;
1601;SDS011;794;48.592;9.634;2022-11-18T11:16:59;1.53;;;0.80;;
1601;SDS011;794;48.592;9.634;2022-11-18T11:19:30;0.70;;;0.70;;
1601;SDS011;794;48.592;9.634;2022-11-18T11:22:00;2.83;;;1.03;;
1601;SDS011;794;48.592;9.634;2022-11-18T11:24:28;0.83;;;0.80;;
1601;SDS011;794;48.592;9.634;2022-11-18T11:26:59;1.33;;;1.23;;
1601;SDS011;794;48.592;9.634;2022-11-18T11:29:37;1.73;;;0.90;;
1601;SDS011;794;48.592;9.634;2022-11-18T11:32:14;1.00;;;0.90;;
1601;SDS011;794;48.592;9.634;2022-11-18T11:34:46;1.10;;;0.90;;
1601;SDS011;794;48.592;9.634;2022-11-18T11:37:19;2.07;;;1.50;;
1601;SDS011;794;48.592;9.634;2022-11-18T11:39:52;1.73;;;1.00;;
1601;SDS011;794;48.592;9.634;2022-11-18T11:42:30;1.27;;;1.17;;
1601;SDS011;794;48.592;9.634;2022-11-18T11:45:03;1.03;;;0.93;;
1601;SDS011;794;48.592;9.634;2022-11-18T11:47:33;1.50;;;1.40;;
1601;SDS011;794;48.592;9.634;2022-11-18T11:50:15;1.97;;;1.20;;
1601;SDS011;794;48.592;9.634;2022-11-18T11:52:45;1.20;;;1.10;;
1601;SDS011;794;48.592;9.634;2022-11-18T11:55:20;5.63;;;4.73;;
1601;SDS011;794;48.592;9.634;2022-11-18T11:57:54;1.30;;;1.20;;
1601;SDS011;794;48.592;9.634;2022-11-18T12:00:24;1.10;;;1.10;;
1601;SDS011;794;48.592;9.634;2022-11-18T12:02:55;1.40;;;1.07;;
1601;SDS011;794;48.592;9.634;2022-11-18T12:05:27;2.63;;;2.43;;
1601;SDS011;794;48.592;9.634;2022-11-18T12:07:59;1.57;;;1.47;;
1601;SDS011;794;48.592;9.634;2022-11-18T12:10:34;1.80;;;1.43;;
1601;SDS011;794;48.592;9.634;2022-11-18T12:13:08;1.60;;;1.50;;
1601;SDS011;794;48.592;9.634;2022-11-18T12:15:39;1.00;;;0.80;;
1601;SDS011;794;48.592;9.634;2022-11-18T12:18:09;1.40;;;1.30;;
1601;SDS011;794;48.592;9.634;2022-11-18T12:20:40;1.03;;;1.00;;
1601;SDS011;794;48.592;9.634;2022-11-18T12:23:15;2.17;;;1.27;;
1601;SDS011;794;48.592;9.634;2022-11-18T12:25:59;1.50;;;1.40;;
1601;SDS011;794;48.592;9.634;2022-11-18T12:28:28;2.77;;;2.57;;
1601;SDS011;794;48.592;9.634;2022-11-18T12:33:42;1.37;;;1.27;;
1601;SDS011;794;48.592;9.634;2022-11-18T12:36:11;1.67;;;1.57;;
1601;SDS011;794;48.592;9.634;2022-11-18T12:38:50;3.47;;;3.17;;
1601;SDS011;794;48.592;9.634;2022-11-18T12:55:14;5.83;;;5.00;;
1601;SDS011;794;48.592;9.634;2022-11-18T12:57:41;2.37;;;2.17;;
1601;SDS011;794;48.592;9.634;2022-11-18T13:00:15;5.13;;;1.97;;
1601;SDS011;794;48.592;9.634;2022-11-18T13:02:49;1.87;;;1.70;;
1601;SDS011;794;48.592;9.634;2022-11-18T13:05:18;1.90;;;1.80;;
1601;SDS011;794;48.592;9.634;2022-11-18T13:07:48;2.20;;;1.90;;
1601;SDS011;794;48.592;9.634;2022-11-18T13:10:38;1.10;;;1.10;;
1601;SDS011;794;48.592;9.634;2022-11-18T13:13:10;1.53;;;1.13;;
1601;SDS011;794;48.592;9.634;2022-11-18T13:15:40;2.53;;;1.30;;
1601;SDS011;794;48.592;9.634;2022-11-18T13:18:25;3.40;;;1.30;;
1601;SDS011;794;48.592;9.634;2022-11-18T13:20:53;1.00;;;1.00;;
1601;SDS011;794;48.592;9.634;2022-11-18T13:23:26;2.00;;;1.00;;
1601;SDS011;794;48.592;9.634;2022-11-18T13:26:13;1.40;;;1.30;;
1601;SDS011;794;48.592;9.634;2022-11-18T13:28:42;1.10;;;1.00;;
1601;SDS011;794;48.592;9.634;2022-11-18T13:31:13;1.10;;;1.00;;
1601;SDS011;794;48.592;9.634;2022-11-18T13:33:42;2.37;;;1.30;;
1601;SDS011;794;48.592;9.634;2022-11-18T13:36:16;7.03;;;4.70;;
1601;SDS011;794;48.592;9.634;2022-11-18T13:38:53;4.50;;;4.10;;
1601;SDS011;794;48.592;9.634;2022-11-18T13:41:22;2.97;;;2.60;;
1601;SDS011;794;48.592;9.634;2022-11-18T13:44:08;3.30;;;3.10;;
1601;SDS011;794;48.592;9.634;2022-11-18T13:46:35;2.63;;;2.43;;
1601;SDS011;794;48.592;9.634;2022-11-18T13:49:04;3.80;;;1.83;;
1601;SDS011;794;48.592;9.634;2022-11-18T13:51:31;6.33;;;5.80;;
1601;SDS011;794;48.592;9.634;2022-11-18T13:53:58;3.43;;;2.53;;
1601;SDS011;794;48.592;9.634;2022-11-18T13:56:27;2.73;;;2.53;;
1601;SDS011;794;48.592;9.634;2022-11-18T13:58:57;3.17;;;2.93;;
1601;SDS011;794;48.592;9.634;2022-11-18T14:01:26;3.03;;;2.83;;
1601;SDS011;794;48.592;9.634;2022-11-18T14:03:54;3.37;;;2.50;;
1601;SDS011;794;48.592;9.634;2022-11-18T14:06:24;2.43;;;2.33;;
1601;SDS011;794;48.592;9.634;2022-11-18T14:09:01;2.80;;;2.60;;
1601;SDS011;794;48.592;9.634;2022-11-18T14:11:37;2.87;;;2.30;;
1601;SDS011;794;48.592;9.634;2022-11-18T14:14:05;3.73;;;2.20;;
1601;SDS011;794;48.592;9.634;2022-11-18T14:16:34;1.70;;;1.60;;
1601;SDS011;794;48.592;9.634;2022-11-18T14:19:02;4.23;;;1.90;;
1601;SDS011;794;48.592;9.634;2022-11-18T14:21:29;10.07;;;5.40;;
1601;SDS011;794;48.592;9.634;2022-11-18T14:23:57;5.33;;;4.83;;
1601;SDS011;794;48.592;9.634;2022-11-18T14:26:25;3.10;;;2.80;;
1601;SDS011;794;48.592;9.634;2022-11-18T14:28:54;2.97;;;2.73;;
1601;SDS011;794;48.592;9.634;2022-11-18T14:31:23;3.53;;;3.23;;
1601;SDS011;794;48.592;9.634;2022-11-18T14:36:37;4.30;;;3.00;;
1601;SDS011;794;48.592;9.634;2022-11-18T14:39:10;7.00;;;6.40;;
1601;SDS011;794;48.592;9.634;2022-11-18T14:41:38;2.43;;;1.93;;
1601;SDS011;794;48.592;9.634;2022-11-18T14:44:17;3.10;;;2.80;;
1601;SDS011;794;48.592;9.634;2022-11-18T14:46:45;6.10;;;5.03;;
1601;SDS011;794;48.592;9.634;2022-11-18T14:49:13;4.20;;;3.90;;
1601;SDS011;794;48.592;9.634;2022-11-18T14:51:41;6.53;;;5.33;;
1601;SDS011;794;48.592;9.634;2022-11-18T14:54:10;4.07;;;3.77;;
1601;SDS011;794;48.592;9.634;2022-11-18T14:56:38;5.20;;;4.13;;
1601;SDS011;794;48.592;9.634;2022-11-18T14:59:06;5.50;;;4.83;;
1601;SDS011;794;48.592;9.634;2022-11-18T15:01:35;4.40;;;2.80;;
1601;SDS011;794;48.592;9.634;2022-11-18T15:04:02;8.80;;;8.00;;
1601;SDS011;794;48.592;9.634;2022-11-18T15:06:29;3.67;;;3.30;;
1601;SDS011;794;48.592;9.634;2022-11-18T15:08:56;8.57;;;2.90;;
1601;SDS011;794;48.592;9.634;2022-11-18T15:11:23;3.93;;;3.63;;
1601;SDS011;794;48.592;9.634;2022-11-18T15:13:51;3.97;;;3.50;;
1601;SDS011;794;48.592;9.634;2022-11-18T15:16:19;4.80;;;4.40;;
1601;SDS011;794;48.592;9.634;2022-11-18T15:18:49;11.13;;;7.70;;
1601;SDS011;794;48.592;9.634;2022-11-18T15:21:16;9.87;;;8.20;;
1601;SDS011;794;48.592;9.634;2022-11-18T15:23:44;13.87;;;9.50;;
1601;SDS011;794;48.592;9.634;2022-11-18T15:26:14;14.43;;;11.67;;
1601;SDS011;794;48.592;9.634;2022-11-18T15:28:43;10.20;;;8.10;;
1601;SDS011;794;48.592;9.634;2022-11-18T15:31:10;14.07;;;9.40;;
1601;SDS011;794;48.592;9.634;2022-11-18T15:33:38;7.30;;;6.50;;
1601;SDS011;794;48.592;9.634;2022-11-18T15:36:10;6.10;;;5.50;;
1601;SDS011;794;48.592;9.634;2022-11-18T15:38:38;8.43;;;6.60;;
1601;SDS011;794;48.592;9.634;2022-11-18T15:41:05;20.30;;;6.70;;
1601;SDS011;794;48.592;9.634;2022-11-18T15:43:33;12.97;;;8.67;;
1601;SDS011;794;48.592;9.634;2022-11-18T15:46:00;18.60;;;14.17;;
1601;SDS011;794;48.592;9.634;2022-11-18T15:48:29;9.37;;;6.60;;
1601;SDS011;794;48.592;9.634;2022-11-18T15:50:56;12.07;;;8.80;;
1601;SDS011;794;48.592;9.634;2022-11-18T15:53:26;13.00;;;7.73;;
1601;SDS011;794;48.592;9.634;2022-11-18T15:58:37;8.47;;;6.60;;
1601;SDS011;794;48.592;9.634;2022-11-18T16:01:04;12.03;;;7.87;;
1601;SDS011;794;48.592;9.634;2022-11-18T16:03:32;7.67;;;5.70;;
1601;SDS011;794;48.592;9.634;2022-11-18T16:05:59;6.40;;;5.70;;
1601;SDS011;794;48.592;9.634;2022-11-18T16:08:28;8.17;;;5.00;;
1601;SDS011;794;48.592;9.634;2022-11-18T16:10:56;12.40;;;7.50;;